sensor_id;sensor_type;location;lat;lon;timestamp;P1;durP1;ratioP1;P2;durP2;ratioP2
11305;SDS011;5708;50.660;6.778;2023-08-17T00:02:11;40.28;;;29.83;;
11305;SDS011;5708;50.660;6.778;2023-08-17T00:04:37;42.58;;;30.05;;
11305;SDS011;5708;50.660;6.778;2023-08-17T00:07:03;37.65;;;28.77;;
11305;SDS011;5708;50.660;6.778;2023-08-17T00:09:28;42.92;;;31.80;;
11305;SDS011;5708;50.660;6.778;2023-08-17T00:11:53;46.00;;;31.58;;
11305;SDS011;5708;50.660;6.778;2023-08-17T00:14:19;44.88;;;33.00;;
11305;SDS011;5708;50.660;6.778;2023-08-17T00:16:44;42.65;;;31.58;;
11305;SDS011;5708;50.660;6.778;2023-08-17T00:19:09;39.47;;;30.45;;
11305;SDS011;5708;50.660;6.778;2023-08-17T00:21:34;46.72;;;32.03;;
11305;SDS011;5708;50.660;6.778;2023-08-17T00:24:01;44.22;;;32.13;;
11305;SDS011;5708;50.660;6.778;2023-08-17T00:26:26;47.38;;;32.20;;
11305;SDS011;5708;50.660;6.778;2023-08-17T00:28:53;45.80;;;31.60;;
11305;SDS011;5708;50.660;6.778;2023-08-17T00:31:18;44.55;;;33.10;;
11305;SDS011;5708;50.660;6.778;2023-08-17T00:33:43;44.00;;;33.70;;
11305;SDS011;5708;50.660;6.778;2023-08-17T00:36:08;49.90;;;34.03;;
11305;SDS011;5708;50.660;6.778;2023-08-17T00:38:34;48.47;;;35.45;;
11305;SDS011;5708;50.660;6.778;2023-08-17T00:40:59;47.65;;;33.45;;
11305;SDS011;5708;50.660;6.778;2023-08-17T00:43:24;47.67;;;35.92;;
11305;SDS011;5708;50.660;6.778;2023-08-17T00:45:50;47.28;;;35.80;;
11305;SDS011;5708;50.660;6.778;2023-08-17T00:48:15;52.58;;;37.35;;
11305;SDS011;5708;50.660;6.778;2023-08-17T00:50:40;49.47;;;36.97;;
11305;SDS011;5708;50.660;6.778;2023-08-17T00:53:06;53.50;;;36.95;;
11305;SDS011;5708;50.660;6.778;2023-08-17T00:55:32;51.75;;;35.83;;
11305;SDS011;5708;50.660;6.778;2023-08-17T00:57:58;46.13;;;35.13;;
11305;SDS011;5708;50.660;6.778;2023-08-17T01:00:24;45.20;;;34.40;;
11305;SDS011;5708;50.660;6.778;2023-08-17T01:02:51;52.13;;;34.80;;
11305;SDS011;5708;50.660;6.778;2023-08-17T01:05:18;52.05;;;33.92;;
11305;SDS011;5708;50.660;6.778;2023-08-17T01:07:44;43.55;;;33.65;;
11305;SDS011;5708;50.660;6.778;2023-08-17T01:10:09;53.83;;;35.13;;
11305;SDS011;5708;50.660;6.778;2023-08-17T01:15:07;49.63;;;34.53;;
11305;SDS011;5708;50.660;6.778;2023-08-17T01:20:20;46.25;;;32.28;;
11305;SDS011;5708;50.660;6.778;2023-08-17T01:22:49;48.55;;;33.05;;
11305;SDS011;5708;50.660;6.778;2023-08-17T01:25:15;46.30;;;33.65;;
11305;SDS011;5708;50.660;6.778;2023-08-17T01:27:41;43.63;;;33.00;;
11305;SDS011;5708;50.660;6.778;2023-08-17T01:30:10;40.63;;;32.03;;
11305;SDS011;5708;50.660;6.778;2023-08-17T01:32:37;46.83;;;32.90;;
11305;SDS011;5708;50.660;6.778;2023-08-17T01:38:15;45.10;;;32.67;;
11305;SDS011;5708;50.660;6.778;2023-08-17T01:40:42;47.05;;;34.13;;
11305;SDS011;5708;50.660;6.778;2023-08-17T01:43:10;46.72;;;34.40;;
11305;SDS011;5708;50.660;6.778;2023-08-17T01:45:36;41.90;;;31.60;;
11305;SDS011;5708;50.660;6.778;2023-08-17T01:48:01;52.15;;;34.42;;
11305;SDS011;5708;50.660;6.778;2023-08-17T01:50:27;51.30;;;34.20;;
11305;SDS011;5708;50.660;6.778;2023-08-17T01:52:52;45.58;;;33.25;;
11305;SDS011;5708;50.660;6.778;2023-08-17T01:55:20;46.47;;;33.58;;
11305;SDS011;5708;50.660;6.778;2023-08-17T01:57:46;43.17;;;32.30;;
11305;SDS011;5708;50.660;6.778;2023-08-17T02:00:11;43.22;;;30.05;;
11305;SDS011;5708;50.660;6.778;2023-08-17T02:02:37;46.88;;;32.13;;
11305;SDS011;5708;50.660;6.778;2023-08-17T02:05:02;49.72;;;34.88;;
11305;SDS011;5708;50.660;6.778;2023-08-17T02:07:28;51.22;;;34.50;;
11305;SDS011;5708;50.660;6.778;2023-08-17T02:09:53;48.95;;;34.30;;
11305;SDS011;5708;50.660;6.778;2023-08-17T02:12:18;43.03;;;31.25;;
11305;SDS011;5708;50.660;6.778;2023-08-17T02:14:44;49.63;;;34.55;;
11305;SDS011;5708;50.660;6.778;2023-08-17T02:17:09;54.92;;;37.30;;
11305;SDS011;5708;50.660;6.778;2023-08-17T02:19:34;57.55;;;37.40;;
11305;SDS011;5708;50.660;6.778;2023-08-17T02:22:00;60.05;;;38.00;;
11305;SDS011;5708;50.660;6.778;2023-08-17T02:24:25;55.78;;;36.67;;
11305;SDS011;5708;50.660;6.778;2023-08-17T02:26:50;59.30;;;37.85;;
11305;SDS011;5708;50.660;6.778;2023-08-17T02:29:16;54.75;;;37.20;;
11305;SDS011;5708;50.660;6.778;2023-08-17T02:31:41;55.28;;;36.10;;
11305;SDS011;5708;50.660;6.778;2023-08-17T02:34:06;53.85;;;35.88;;
11305;SDS011;5708;50.660;6.778;2023-08-17T02:36:32;56.53;;;34.35;;
11305;SDS011;5708;50.660;6.778;2023-08-17T02:38:58;48.30;;;33.10;;
11305;SDS011;5708;50.660;6.778;2023-08-17T02:41:23;52.83;;;35.17;;
11305;SDS011;5708;50.660;6.778;2023-08-17T02:43:48;55.67;;;35.45;;
11305;SDS011;5708;50.660;6.778;2023-08-17T02:46:14;60.63;;;35.67;;
11305;SDS011;5708;50.660;6.778;2023-08-17T02:48:40;53.03;;;34.60;;
11305;SDS011;5708;50.660;6.778;2023-08-17T02:51:05;52.25;;;33.92;;
11305;SDS011;5708;50.660;6.778;2023-08-17T02:53:30;51.60;;;31.90;;
11305;SDS011;5708;50.660;6.778;2023-08-17T02:55:55;47.65;;;31.33;;
11305;SDS011;5708;50.660;6.778;2023-08-17T02:58:21;54.30;;;33.40;;
11305;SDS011;5708;50.660;6.778;2023-08-17T03:00:46;55.08;;;32.45;;
11305;SDS011;5708;50.660;6.778;2023-08-17T03:03:11;56.92;;;34.00;;
11305;SDS011;5708;50.660;6.778;2023-08-17T03:05:37;60.72;;;34.85;;
11305;SDS011;5708;50.660;6.778;2023-08-17T03:08:02;56.63;;;32.55;;
11305;SDS011;5708;50.660;6.778;2023-08-17T03:10:29;55.50;;;35.05;;
11305;SDS011;5708;50.660;6.778;2023-08-17T03:12:54;56.40;;;34.55;;
11305;SDS011;5708;50.660;6.778;2023-08-17T03:15:19;53.05;;;32.08;;
11305;SDS011;5708;50.660;6.778;2023-08-17T03:17:45;49.50;;;31.67;;
11305;SDS011;5708;50.660;6.778;2023-08-17T03:20:10;59.78;;;32.20;;
11305;SDS011;5708;50.660;6.778;2023-08-17T03:22:35;53.83;;;31.65;;
11305;SDS011;5708;50.660;6.778;2023-08-17T03:25:01;56.38;;;33.63;;
11305;SDS011;5708;50.660;6.778;2023-08-17T03:27:27;54.85;;;33.20;;
11305;SDS011;5708;50.660;6.778;2023-08-17T03:29:53;47.58;;;31.38;;
11305;SDS011;5708;50.660;6.778;2023-08-17T03:32:19;42.10;;;28.65;;
11305;SDS011;5708;50.660;6.778;2023-08-17T03:34:44;55.60;;;30.63;;
11305;SDS011;5708;50.660;6.778;2023-08-17T03:37:09;49.35;;;31.90;;
11305;SDS011;5708;50.660;6.778;2023-08-17T03:39:34;53.05;;;30.88;;
11305;SDS011;5708;50.660;6.778;2023-08-17T03:42:00;50.70;;;31.15;;
11305;SDS011;5708;50.660;6.778;2023-08-17T03:44:25;52.15;;;31.15;;
11305;SDS011;5708;50.660;6.778;2023-08-17T03:46:50;54.22;;;32.20;;
11305;SDS011;5708;50.660;6.778;2023-08-17T03:49:16;54.67;;;31.90;;
11305;SDS011;5708;50.660;6.778;2023-08-17T03:51:41;57.13;;;31.75;;
11305;SDS011;5708;50.660;6.778;2023-08-17T03:54:07;54.75;;;32.33;;
11305;SDS011;5708;50.660;6.778;2023-08-17T03:56:32;51.70;;;32.42;;
11305;SDS011;5708;50.660;6.778;2023-08-17T03:58:58;54.05;;;32.78;;
11305;SDS011;5708;50.660;6.778;2023-08-17T04:01:23;52.63;;;32.45;;
11305;SDS011;5708;50.660;6.778;2023-08-17T04:03:48;53.63;;;31.75;;
11305;SDS011;5708;50.660;6.778;2023-08-17T04:06:13;56.88;;;33.58;;
11305;SDS011;5708;50.660;6.778;2023-08-17T04:08:39;56.85;;;32.25;;
11305;SDS011;5708;50.660;6.778;2023-08-17T04:11:04;59.10;;;32.80;;
11305;SDS011;5708;50.660;6.778;2023-08-17T04:13:30;59.45;;;33.42;;
11305;SDS011;5708;50.660;6.778;2023-08-17T04:15:56;57.05;;;34.38;;
11305;SDS011;5708;50.660;6.778;2023-08-17T04:18:21;55.92;;;32.90;;
11305;SDS011;5708;50.660;6.778;2023-08-17T04:20:47;69.78;;;35.20;;
11305;SDS011;5708;50.660;6.778;2023-08-17T04:23:12;69.07;;;34.15;;
11305;SDS011;5708;50.660;6.778;2023-08-17T04:25:37;61.75;;;32.83;;
11305;SDS011;5708;50.660;6.778;2023-08-17T04:28:03;61.38;;;33.88;;
11305;SDS011;5708;50.660;6.778;2023-08-17T04:30:28;62.90;;;35.63;;
11305;SDS011;5708;50.660;6.778;2023-08-17T04:32:54;59.63;;;35.95;;
11305;SDS011;5708;50.660;6.778;2023-08-17T04:35:19;62.33;;;34.55;;
11305;SDS011;5708;50.660;6.778;2023-08-17T04:37:45;59.63;;;34.92;;
11305;SDS011;5708;50.660;6.778;2023-08-17T04:40:12;66.95;;;36.17;;
11305;SDS011;5708;50.660;6.778;2023-08-17T04:42:37;55.88;;;35.28;;
11305;SDS011;5708;50.660;6.778;2023-08-17T04:45:02;52.42;;;34.70;;
11305;SDS011;5708;50.660;6.778;2023-08-17T04:47:28;55.30;;;32.72;;
11305;SDS011;5708;50.660;6.778;2023-08-17T04:49:54;48.03;;;31.15;;
11305;SDS011;5708;50.660;6.778;2023-08-17T04:52:19;46.10;;;31.75;;
11305;SDS011;5708;50.660;6.778;2023-08-17T04:54:44;58.60;;;32.83;;
11305;SDS011;5708;50.660;6.778;2023-08-17T04:57:09;52.80;;;33.22;;
11305;SDS011;5708;50.660;6.778;2023-08-17T04:59:35;53.22;;;32.25;;
11305;SDS011;5708;50.660;6.778;2023-08-17T05:02:01;47.55;;;31.55;;
11305;SDS011;5708;50.660;6.778;2023-08-17T05:04:26;45.95;;;32.78;;
11305;SDS011;5708;50.660;6.778;2023-08-17T05:06:51;48.25;;;30.88;;
11305;SDS011;5708;50.660;6.778;2023-08-17T05:09:16;49.25;;;31.80;;
11305;SDS011;5708;50.660;6.778;2023-08-17T05:11:42;46.90;;;31.50;;
11305;SDS011;5708;50.660;6.778;2023-08-17T05:14:07;42.33;;;30.92;;
11305;SDS011;5708;50.660;6.778;2023-08-17T05:16:33;43.60;;;30.63;;
11305;SDS011;5708;50.660;6.778;2023-08-17T05:18:58;52.08;;;32.67;;
11305;SDS011;5708;50.660;6.778;2023-08-17T05:21:24;52.03;;;31.95;;
11305;SDS011;5708;50.660;6.778;2023-08-17T05:23:50;50.58;;;32.47;;
11305;SDS011;5708;50.660;6.778;2023-08-17T05:26:15;52.58;;;32.97;;
11305;SDS011;5708;50.660;6.778;2023-08-17T05:28:40;49.88;;;32.72;;
11305;SDS011;5708;50.660;6.778;2023-08-17T05:31:08;52.92;;;35.80;;
11305;SDS011;5708;50.660;6.778;2023-08-17T05:33:33;52.83;;;33.20;;
11305;SDS011;5708;50.660;6.778;2023-08-17T05:35:59;60.90;;;38.08;;
11305;SDS011;5708;50.660;6.778;2023-08-17T05:38:24;62.88;;;39.67;;
11305;SDS011;5708;50.660;6.778;2023-08-17T05:40:56;61.67;;;38.58;;
11305;SDS011;5708;50.660;6.778;2023-08-17T05:43:21;59.28;;;38.90;;
11305;SDS011;5708;50.660;6.778;2023-08-17T05:45:47;61.67;;;40.15;;
11305;SDS011;5708;50.660;6.778;2023-08-17T05:48:12;61.65;;;39.17;;
11305;SDS011;5708;50.660;6.778;2023-08-17T05:50:40;61.15;;;39.58;;
11305;SDS011;5708;50.660;6.778;2023-08-17T05:53:06;61.03;;;40.88;;
11305;SDS011;5708;50.660;6.778;2023-08-17T05:55:31;64.03;;;40.58;;
11305;SDS011;5708;50.660;6.778;2023-08-17T05:57:57;76.00;;;40.97;;
11305;SDS011;5708;50.660;6.778;2023-08-17T06:00:22;67.68;;;40.10;;
11305;SDS011;5708;50.660;6.778;2023-08-17T06:02:48;63.03;;;38.85;;
11305;SDS011;5708;50.660;6.778;2023-08-17T06:05:16;63.25;;;40.00;;
11305;SDS011;5708;50.660;6.778;2023-08-17T06:07:41;65.07;;;39.17;;
11305;SDS011;5708;50.660;6.778;2023-08-17T06:10:07;62.83;;;39.38;;
11305;SDS011;5708;50.660;6.778;2023-08-17T06:12:33;60.92;;;39.30;;
11305;SDS011;5708;50.660;6.778;2023-08-17T06:14:59;59.60;;;38.83;;
11305;SDS011;5708;50.660;6.778;2023-08-17T06:17:24;61.72;;;39.47;;
11305;SDS011;5708;50.660;6.778;2023-08-17T06:19:49;65.57;;;39.50;;
11305;SDS011;5708;50.660;6.778;2023-08-17T06:22:15;64.43;;;38.22;;
11305;SDS011;5708;50.660;6.778;2023-08-17T06:24:40;66.07;;;38.15;;
11305;SDS011;5708;50.660;6.778;2023-08-17T06:27:05;60.95;;;37.80;;
11305;SDS011;5708;50.660;6.778;2023-08-17T06:29:31;63.40;;;36.65;;
11305;SDS011;5708;50.660;6.778;2023-08-17T06:31:56;66.00;;;39.28;;
11305;SDS011;5708;50.660;6.778;2023-08-17T06:34:21;58.53;;;38.25;;
11305;SDS011;5708;50.660;6.778;2023-08-17T06:36:56;59.53;;;37.65;;
11305;SDS011;5708;50.660;6.778;2023-08-17T06:39:22;59.67;;;36.60;;
11305;SDS011;5708;50.660;6.778;2023-08-17T06:41:47;57.67;;;35.28;;
11305;SDS011;5708;50.660;6.778;2023-08-17T06:44:13;58.60;;;36.90;;
11305;SDS011;5708;50.660;6.778;2023-08-17T06:46:38;63.10;;;37.63;;
11305;SDS011;5708;50.660;6.778;2023-08-17T06:49:03;66.72;;;37.45;;
11305;SDS011;5708;50.660;6.778;2023-08-17T06:51:28;67.32;;;36.78;;
11305;SDS011;5708;50.660;6.778;2023-08-17T06:53:54;69.00;;;36.75;;
11305;SDS011;5708;50.660;6.778;2023-08-17T06:56:19;68.75;;;37.10;;
11305;SDS011;5708;50.660;6.778;2023-08-17T06:58:44;63.45;;;37.10;;
11305;SDS011;5708;50.660;6.778;2023-08-17T07:01:10;62.10;;;36.05;;
11305;SDS011;5708;50.660;6.778;2023-08-17T07:03:35;70.35;;;37.00;;
11305;SDS011;5708;50.660;6.778;2023-08-17T07:06:01;64.18;;;36.05;;
11305;SDS011;5708;50.660;6.778;2023-08-17T07:08:26;69.13;;;36.78;;
11305;SDS011;5708;50.660;6.778;2023-08-17T07:10:52;62.60;;;34.72;;
11305;SDS011;5708;50.660;6.778;2023-08-17T07:13:17;66.18;;;34.85;;
11305;SDS011;5708;50.660;6.778;2023-08-17T07:15:42;66.45;;;33.05;;
11305;SDS011;5708;50.660;6.778;2023-08-17T07:18:07;66.93;;;33.67;;
11305;SDS011;5708;50.660;6.778;2023-08-17T07:20:33;63.50;;;33.88;;
11305;SDS011;5708;50.660;6.778;2023-08-17T07:22:58;67.95;;;34.47;;
11305;SDS011;5708;50.660;6.778;2023-08-17T07:25:23;70.20;;;32.95;;
11305;SDS011;5708;50.660;6.778;2023-08-17T07:27:49;72.18;;;33.13;;
11305;SDS011;5708;50.660;6.778;2023-08-17T07:30:15;68.72;;;32.55;;
11305;SDS011;5708;50.660;6.778;2023-08-17T07:32:40;68.20;;;30.55;;
11305;SDS011;5708;50.660;6.778;2023-08-17T07:35:06;66.07;;;31.83;;
11305;SDS011;5708;50.660;6.778;2023-08-17T07:37:31;65.75;;;31.60;;
11305;SDS011;5708;50.660;6.778;2023-08-17T07:39:59;65.95;;;30.48;;
11305;SDS011;5708;50.660;6.778;2023-08-17T07:42:25;61.25;;;28.95;;
11305;SDS011;5708;50.660;6.778;2023-08-17T07:44:50;67.47;;;33.08;;
11305;SDS011;5708;50.660;6.778;2023-08-17T07:47:15;62.83;;;31.52;;
11305;SDS011;5708;50.660;6.778;2023-08-17T07:49:41;64.63;;;31.00;;
11305;SDS011;5708;50.660;6.778;2023-08-17T07:52:06;65.35;;;30.33;;
11305;SDS011;5708;50.660;6.778;2023-08-17T07:54:31;58.75;;;29.80;;
11305;SDS011;5708;50.660;6.778;2023-08-17T07:56:57;64.90;;;30.95;;
11305;SDS011;5708;50.660;6.778;2023-08-17T07:59:22;58.75;;;29.67;;
11305;SDS011;5708;50.660;6.778;2023-08-17T08:01:48;59.83;;;30.30;;
11305;SDS011;5708;50.660;6.778;2023-08-17T08:04:13;54.20;;;28.75;;
11305;SDS011;5708;50.660;6.778;2023-08-17T08:06:38;55.70;;;30.40;;
11305;SDS011;5708;50.660;6.778;2023-08-17T08:09:03;59.53;;;29.90;;
11305;SDS011;5708;50.660;6.778;2023-08-17T08:11:29;54.05;;;28.70;;
11305;SDS011;5708;50.660;6.778;2023-08-17T08:13:55;48.35;;;27.50;;
11305;SDS011;5708;50.660;6.778;2023-08-17T08:16:21;48.05;;;26.20;;
11305;SDS011;5708;50.660;6.778;2023-08-17T08:18:47;49.40;;;25.98;;
11305;SDS011;5708;50.660;6.778;2023-08-17T08:21:12;49.17;;;28.17;;
11305;SDS011;5708;50.660;6.778;2023-08-17T08:23:37;52.58;;;28.85;;
11305;SDS011;5708;50.660;6.778;2023-08-17T08:26:03;55.58;;;27.67;;
11305;SDS011;5708;50.660;6.778;2023-08-17T08:28:28;54.60;;;27.58;;
11305;SDS011;5708;50.660;6.778;2023-08-17T08:30:53;52.05;;;25.73;;
11305;SDS011;5708;50.660;6.778;2023-08-17T08:33:19;48.08;;;24.75;;
11305;SDS011;5708;50.660;6.778;2023-08-17T08:35:44;49.40;;;23.80;;
11305;SDS011;5708;50.660;6.778;2023-08-17T08:38:10;44.90;;;23.45;;
11305;SDS011;5708;50.660;6.778;2023-08-17T08:40:36;46.75;;;23.70;;
11305;SDS011;5708;50.660;6.778;2023-08-17T08:43:02;41.00;;;22.45;;
11305;SDS011;5708;50.660;6.778;2023-08-17T08:45:27;40.17;;;22.38;;
11305;SDS011;5708;50.660;6.778;2023-08-17T08:47:54;40.10;;;21.45;;
11305;SDS011;5708;50.660;6.778;2023-08-17T08:50:21;38.67;;;21.55;;
11305;SDS011;5708;50.660;6.778;2023-08-17T08:52:50;44.40;;;24.35;;
11305;SDS011;5708;50.660;6.778;2023-08-17T08:55:18;51.85;;;26.02;;
11305;SDS011;5708;50.660;6.778;2023-08-17T08:57:46;45.15;;;24.42;;
11305;SDS011;5708;50.660;6.778;2023-08-17T09:00:14;48.47;;;25.38;;
11305;SDS011;5708;50.660;6.778;2023-08-17T09:02:39;42.95;;;23.48;;
11305;SDS011;5708;50.660;6.778;2023-08-17T09:05:07;35.88;;;20.70;;
11305;SDS011;5708;50.660;6.778;2023-08-17T09:07:34;39.70;;;21.77;;
11305;SDS011;5708;50.660;6.778;2023-08-17T09:09:59;37.25;;;21.27;;
11305;SDS011;5708;50.660;6.778;2023-08-17T09:12:25;36.28;;;21.48;;
11305;SDS011;5708;50.660;6.778;2023-08-17T09:14:50;36.20;;;21.55;;
11305;SDS011;5708;50.660;6.778;2023-08-17T09:17:25;40.33;;;23.30;;
11305;SDS011;5708;50.660;6.778;2023-08-17T09:19:51;34.80;;;20.77;;
11305;SDS011;5708;50.660;6.778;2023-08-17T09:22:23;36.70;;;22.33;;
11305;SDS011;5708;50.660;6.778;2023-08-17T09:24:49;35.97;;;23.27;;
11305;SDS011;5708;50.660;6.778;2023-08-17T09:27:15;35.72;;;20.77;;
11305;SDS011;5708;50.660;6.778;2023-08-17T09:29:42;36.20;;;22.33;;
11305;SDS011;5708;50.660;6.778;2023-08-17T09:32:08;34.90;;;20.70;;
11305;SDS011;5708;50.660;6.778;2023-08-17T09:34:35;35.60;;;23.48;;
11305;SDS011;5708;50.660;6.778;2023-08-17T09:37:03;45.58;;;25.25;;
11305;SDS011;5708;50.660;6.778;2023-08-17T09:39:31;43.67;;;26.67;;
11305;SDS011;5708;50.660;6.778;2023-08-17T09:41:57;40.00;;;24.85;;
11305;SDS011;5708;50.660;6.778;2023-08-17T09:44:22;39.75;;;25.55;;
11305;SDS011;5708;50.660;6.778;2023-08-17T09:46:47;38.22;;;24.38;;
11305;SDS011;5708;50.660;6.778;2023-08-17T09:49:13;39.53;;;25.63;;
11305;SDS011;5708;50.660;6.778;2023-08-17T09:51:41;39.25;;;24.48;;
11305;SDS011;5708;50.660;6.778;2023-08-17T09:54:07;37.80;;;24.58;;
11305;SDS011;5708;50.660;6.778;2023-08-17T09:56:33;34.80;;;23.00;;
11305;SDS011;5708;50.660;6.778;2023-08-17T09:58:59;39.03;;;24.38;;
11305;SDS011;5708;50.660;6.778;2023-08-17T10:01:24;38.08;;;24.00;;
11305;SDS011;5708;50.660;6.778;2023-08-17T10:03:50;38.13;;;24.33;;
11305;SDS011;5708;50.660;6.778;2023-08-17T10:06:17;42.33;;;26.25;;
11305;SDS011;5708;50.660;6.778;2023-08-17T10:08:46;41.58;;;27.00;;
11305;SDS011;5708;50.660;6.778;2023-08-17T10:11:14;40.95;;;26.27;;
11305;SDS011;5708;50.660;6.778;2023-08-17T10:13:46;41.78;;;27.48;;
11305;SDS011;5708;50.660;6.778;2023-08-17T10:16:36;42.58;;;26.45;;
11305;SDS011;5708;50.660;6.778;2023-08-17T10:21:50;38.17;;;24.35;;
11305;SDS011;5708;50.660;6.778;2023-08-17T10:24:20;38.60;;;25.65;;
11305;SDS011;5708;50.660;6.778;2023-08-17T10:26:45;34.80;;;25.52;;
11305;SDS011;5708;50.660;6.778;2023-08-17T10:29:11;41.47;;;29.48;;
11305;SDS011;5708;50.660;6.778;2023-08-17T10:31:37;40.70;;;28.48;;
11305;SDS011;5708;50.660;6.778;2023-08-17T10:34:03;43.80;;;29.60;;
11305;SDS011;5708;50.660;6.778;2023-08-17T10:36:29;43.75;;;31.50;;
11305;SDS011;5708;50.660;6.778;2023-08-17T10:41:47;44.20;;;29.73;;
11305;SDS011;5708;50.660;6.778;2023-08-17T10:44:13;45.13;;;30.95;;
11305;SDS011;5708;50.660;6.778;2023-08-17T10:46:38;41.75;;;30.45;;
11305;SDS011;5708;50.660;6.778;2023-08-17T10:49:23;46.70;;;31.58;;
11305;SDS011;5708;50.660;6.778;2023-08-17T10:51:59;48.85;;;31.70;;
11305;SDS011;5708;50.660;6.778;2023-08-17T10:54:38;49.00;;;31.60;;
11305;SDS011;5708;50.660;6.778;2023-08-17T11:02:45;35.75;;;25.92;;
11305;SDS011;5708;50.660;6.778;2023-08-17T11:05:33;40.30;;;26.80;;
11305;SDS011;5708;50.660;6.778;2023-08-17T11:08:28;33.83;;;25.20;;
11305;SDS011;5708;50.660;6.778;2023-08-17T11:13:41;33.25;;;25.38;;
11305;SDS011;5708;50.660;6.778;2023-08-17T11:16:08;38.35;;;26.30;;
11305;SDS011;5708;50.660;6.778;2023-08-17T11:18:34;35.17;;;25.92;;
11305;SDS011;5708;50.660;6.778;2023-08-17T11:21:04;39.58;;;27.13;;
11305;SDS011;5708;50.660;6.778;2023-08-17T11:23:30;35.03;;;25.02;;
11305;SDS011;5708;50.660;6.778;2023-08-17T11:25:58;37.25;;;25.90;;
11305;SDS011;5708;50.660;6.778;2023-08-17T11:28:24;40.08;;;25.88;;
11305;SDS011;5708;50.660;6.778;2023-08-17T11:30:59;34.08;;;25.02;;
11305;SDS011;5708;50.660;6.778;2023-08-17T11:33:25;36.33;;;26.45;;
11305;SDS011;5708;50.660;6.778;2023-08-17T11:35:53;37.80;;;26.23;;
11305;SDS011;5708;50.660;6.778;2023-08-17T11:38:22;37.83;;;24.98;;
11305;SDS011;5708;50.660;6.778;2023-08-17T11:40:51;33.78;;;24.35;;
11305;SDS011;5708;50.660;6.778;2023-08-17T11:43:17;33.95;;;25.67;;
11305;SDS011;5708;50.660;6.778;2023-08-17T11:45:43;36.20;;;26.25;;
11305;SDS011;5708;50.660;6.778;2023-08-17T11:48:08;36.85;;;24.15;;
11305;SDS011;5708;50.660;6.778;2023-08-17T11:50:34;36.97;;;24.70;;
11305;SDS011;5708;50.660;6.778;2023-08-17T11:52:59;38.47;;;26.33;;
11305;SDS011;5708;50.660;6.778;2023-08-17T11:55:26;36.65;;;26.30;;
11305;SDS011;5708;50.660;6.778;2023-08-17T11:57:51;37.38;;;27.23;;
11305;SDS011;5708;50.660;6.778;2023-08-17T12:00:18;45.67;;;31.75;;
11305;SDS011;5708;50.660;6.778;2023-08-17T12:02:51;47.53;;;32.10;;
11305;SDS011;5708;50.660;6.778;2023-08-17T12:05:23;43.80;;;33.15;;
11305;SDS011;5708;50.660;6.778;2023-08-17T12:07:50;47.00;;;32.47;;
11305;SDS011;5708;50.660;6.778;2023-08-17T12:10:17;42.80;;;29.23;;
11305;SDS011;5708;50.660;6.778;2023-08-17T12:12:43;41.15;;;29.38;;
11305;SDS011;5708;50.660;6.778;2023-08-17T12:15:09;43.80;;;30.17;;
11305;SDS011;5708;50.660;6.778;2023-08-17T12:17:35;41.78;;;28.00;;
11305;SDS011;5708;50.660;6.778;2023-08-17T12:20:01;41.40;;;28.05;;
11305;SDS011;5708;50.660;6.778;2023-08-17T12:22:26;43.65;;;30.55;;
11305;SDS011;5708;50.660;6.778;2023-08-17T12:24:52;41.33;;;29.30;;
11305;SDS011;5708;50.660;6.778;2023-08-17T12:27:17;36.30;;;26.23;;
11305;SDS011;5708;50.660;6.778;2023-08-17T12:29:50;38.90;;;27.25;;
11305;SDS011;5708;50.660;6.778;2023-08-17T12:32:16;33.15;;;23.88;;
11305;SDS011;5708;50.660;6.778;2023-08-17T12:34:43;29.83;;;21.35;;
11305;SDS011;5708;50.660;6.778;2023-08-17T12:37:09;32.63;;;22.52;;
11305;SDS011;5708;50.660;6.778;2023-08-17T12:39:35;34.92;;;21.55;;
11305;SDS011;5708;50.660;6.778;2023-08-17T12:42:00;28.38;;;21.00;;
11305;SDS011;5708;50.660;6.778;2023-08-17T12:44:25;29.50;;;21.70;;
11305;SDS011;5708;50.660;6.778;2023-08-17T12:46:51;32.53;;;22.08;;
11305;SDS011;5708;50.660;6.778;2023-08-17T12:49:16;30.50;;;22.30;;
11305;SDS011;5708;50.660;6.778;2023-08-17T12:51:41;31.33;;;21.90;;
11305;SDS011;5708;50.660;6.778;2023-08-17T12:54:07;30.75;;;21.50;;
11305;SDS011;5708;50.660;6.778;2023-08-17T12:56:32;29.50;;;20.90;;
11305;SDS011;5708;50.660;6.778;2023-08-17T12:58:58;33.42;;;22.60;;
11305;SDS011;5708;50.660;6.778;2023-08-17T13:01:23;31.88;;;22.90;;
11305;SDS011;5708;50.660;6.778;2023-08-17T13:03:48;31.92;;;22.83;;
11305;SDS011;5708;50.660;6.778;2023-08-17T13:06:13;32.38;;;22.75;;
11305;SDS011;5708;50.660;6.778;2023-08-17T13:08:39;33.55;;;23.15;;
11305;SDS011;5708;50.660;6.778;2023-08-17T13:11:04;34.67;;;24.02;;
11305;SDS011;5708;50.660;6.778;2023-08-17T13:13:29;32.58;;;23.55;;
11305;SDS011;5708;50.660;6.778;2023-08-17T13:15:55;35.88;;;25.80;;
11305;SDS011;5708;50.660;6.778;2023-08-17T13:18:20;34.38;;;23.92;;
11305;SDS011;5708;50.660;6.778;2023-08-17T13:20:45;35.20;;;25.92;;
11305;SDS011;5708;50.660;6.778;2023-08-17T13:23:11;38.08;;;26.02;;
11305;SDS011;5708;50.660;6.778;2023-08-17T13:25:36;33.28;;;24.42;;
11305;SDS011;5708;50.660;6.778;2023-08-17T13:28:02;34.78;;;25.20;;
11305;SDS011;5708;50.660;6.778;2023-08-17T13:30:27;37.42;;;25.02;;
11305;SDS011;5708;50.660;6.778;2023-08-17T13:32:53;35.78;;;25.38;;
11305;SDS011;5708;50.660;6.778;2023-08-17T13:35:18;40.90;;;27.52;;
11305;SDS011;5708;50.660;6.778;2023-08-17T13:37:43;35.58;;;26.50;;
11305;SDS011;5708;50.660;6.778;2023-08-17T13:40:09;36.75;;;26.40;;
11305;SDS011;5708;50.660;6.778;2023-08-17T13:42:35;36.08;;;26.10;;
11305;SDS011;5708;50.660;6.778;2023-08-17T13:45:01;35.28;;;26.42;;
11305;SDS011;5708;50.660;6.778;2023-08-17T13:47:27;37.72;;;26.17;;
11305;SDS011;5708;50.660;6.778;2023-08-17T13:49:52;38.88;;;26.90;;
11305;SDS011;5708;50.660;6.778;2023-08-17T13:52:17;39.20;;;26.45;;
11305;SDS011;5708;50.660;6.778;2023-08-17T13:54:42;37.65;;;26.92;;
11305;SDS011;5708;50.660;6.778;2023-08-17T13:57:08;38.80;;;25.52;;
11305;SDS011;5708;50.660;6.778;2023-08-17T13:59:33;37.28;;;24.67;;
11305;SDS011;5708;50.660;6.778;2023-08-17T14:01:58;37.53;;;23.85;;
11305;SDS011;5708;50.660;6.778;2023-08-17T14:04:24;33.05;;;23.40;;
11305;SDS011;5708;50.660;6.778;2023-08-17T14:06:49;35.20;;;24.55;;
11305;SDS011;5708;50.660;6.778;2023-08-17T14:09:16;34.63;;;23.98;;
11305;SDS011;5708;50.660;6.778;2023-08-17T14:11:41;33.80;;;23.85;;
11305;SDS011;5708;50.660;6.778;2023-08-17T14:14:06;34.72;;;24.70;;
11305;SDS011;5708;50.660;6.778;2023-08-17T14:16:32;34.88;;;23.60;;
11305;SDS011;5708;50.660;6.778;2023-08-17T14:18:57;27.98;;;21.35;;
11305;SDS011;5708;50.660;6.778;2023-08-17T14:21:22;30.75;;;21.65;;
11305;SDS011;5708;50.660;6.778;2023-08-17T14:23:48;33.05;;;23.52;;
11305;SDS011;5708;50.660;6.778;2023-08-17T14:26:14;37.85;;;24.02;;
11305;SDS011;5708;50.660;6.778;2023-08-17T14:28:40;35.95;;;26.10;;
11305;SDS011;5708;50.660;6.778;2023-08-17T14:31:05;36.15;;;26.02;;
11305;SDS011;5708;50.660;6.778;2023-08-17T14:33:30;34.65;;;25.25;;
11305;SDS011;5708;50.660;6.778;2023-08-17T14:35:56;34.40;;;24.63;;
11305;SDS011;5708;50.660;6.778;2023-08-17T14:38:21;33.25;;;23.50;;
11305;SDS011;5708;50.660;6.778;2023-08-17T14:40:47;33.15;;;22.65;;
11305;SDS011;5708;50.660;6.778;2023-08-17T14:43:13;31.92;;;23.30;;
11305;SDS011;5708;50.660;6.778;2023-08-17T14:45:39;30.98;;;22.25;;
11305;SDS011;5708;50.660;6.778;2023-08-17T14:48:05;33.47;;;23.42;;
11305;SDS011;5708;50.660;6.778;2023-08-17T14:50:30;31.90;;;23.73;;